首页
METAR-TAF:

METAR-TAF

机场 :

Borden, 安大略省, 加拿大

纬度: 44-15N, 经度: 079-55W, 海拔: 223米

当前天气观测

该预报发布于21分钟前的13:00 UTC
风速9节,风向西转西南
温度 0°C
湿度 86%
气压 1018 hPa
能見度: 14.5公里
阴天层高于1700英尺

METAR: CYBN 151300Z AUTO 25009KT 9SM OVC017 00/M02 A3007 RMK SLP194

时间: 08:21 (13:21 UTC)

预报

该预报发布于1小时和51分钟前的11:30 UTC
预报有效从15日的 12点(UTC)到 15日的 24点(UTC)
风速10节,风向西转西南,有时为20节阵风
能見度: 10公里
阴天层高于1500英尺
短暂存在
从 15日的 12点(UTC)到 15日的 18点(UTC)
阴天层高于2500英尺
成为
从 15日的 13点(UTC)到 15日的 15点(UTC)
风速15节,风向西,有时为25节阵风
从 15日的 1800点(UTC)
风速15节,风向西,有时为25节阵风
能見度: 10公里
多云层高于3000英尺
短暂存在
从 15日的 18点(UTC)到 15日的 22点(UTC)
能見度: 8.0公里
多云层高于2000英尺
小阵雨, 雪
成为
从 15日的 22点(UTC)到 15日的 24点(UTC)
风速8节,风向

TAF: CYBN 151130Z 1512/1524 25010G20KT P6SM OVC015 TEMPO 1512/1518 OVC025 BECMG 1513/1515 27015G25KT FM151800 28015G25KT P6SM BKN030 TEMPO 1518/1522 5SM -SHRASN BKN020 BECMG 1522/1524 35008KT RMK FCST BASED ON AUTO OBS. NXT FCST BY 151800Z

超过4000个机场的气象观测和天气预报(METAR&TAF报告)。

可查询的气象台以黄色和红色小点在地图上表示。

将鼠标移到小点上方,可查看气象台名称。

然后点击查看天气观测和预报。

如需切换地图:点击带黑十字的绿色按钮放大地图;点击带横线的绿色按钮缩小地图;或者点击绿色箭头查看邻近地区的地图。


METAR-TAF: